sensor_id;sensor_type;location;lat;lon;timestamp;pressure;altitude;pressure_sealevel;temperature;humidity
62164;BME280;48149;51.132;7.178;2022-09-02T00:00:42;98853.00;;;20.06;56.81
62164;BME280;48149;51.132;7.178;2022-09-02T00:03:07;98861.47;;;20.23;57.27
62164;BME280;48149;51.132;7.178;2022-09-02T00:05:34;98856.69;;;20.26;56.73
62164;BME280;48149;51.132;7.178;2022-09-02T00:07:59;98845.81;;;20.17;56.89
62164;BME280;48149;51.132;7.178;2022-09-02T00:10:24;98847.94;;;20.20;57.41
62164;BME280;48149;51.132;7.178;2022-09-02T00:12:51;98850.09;;;20.13;57.31
62164;BME280;48149;51.132;7.178;2022-09-02T00:15:16;98846.56;;;20.48;55.59
62164;BME280;48149;51.132;7.178;2022-09-02T00:17:41;98842.25;;;20.62;56.67
62164;BME280;48149;51.132;7.178;2022-09-02T00:20:08;98843.16;;;20.12;57.44
62164;BME280;48149;51.132;7.178;2022-09-02T00:22:33;98836.22;;;20.21;57.77
62164;BME280;48149;51.132;7.178;2022-09-02T00:24:58;98835.44;;;20.36;57.83
62164;BME280;48149;51.132;7.178;2022-09-02T00:27:23;98833.34;;;20.07;58.46
62164;BME280;48149;51.132;7.178;2022-09-02T00:29:49;98831.69;;;20.37;57.89
62164;BME280;48149;51.132;7.178;2022-09-02T00:32:14;98833.84;;;20.35;57.85
62164;BME280;48149;51.132;7.178;2022-09-02T00:34:40;98831.47;;;20.08;58.72
62164;BME280;48149;51.132;7.178;2022-09-02T00:37:06;98831.75;;;20.01;58.93
62164;BME280;48149;51.132;7.178;2022-09-02T00:39:32;98833.34;;;20.07;59.02
62164;BME280;48149;51.132;7.178;2022-09-02T00:41:57;98830.94;;;20.06;58.89
62164;BME280;48149;51.132;7.178;2022-09-02T00:44:23;98821.41;;;19.95;59.26
62164;BME280;48149;51.132;7.178;2022-09-02T00:46:48;98829.03;;;20.37;57.79
62164;BME280;48149;51.132;7.178;2022-09-02T00:49:24;98831.91;;;20.50;57.82
62164;BME280;48149;51.132;7.178;2022-09-02T00:54:17;98823.91;;;20.55;57.27
62164;BME280;48149;51.132;7.178;2022-09-02T00:56:44;98821.09;;;20.11;59.21
62164;BME280;48149;51.132;7.178;2022-09-02T00:59:17;98816.81;;;20.31;57.60
62164;BME280;48149;51.132;7.178;2022-09-02T01:01:45;98818.69;;;20.35;57.73
62164;BME280;48149;51.132;7.178;2022-09-02T01:04:10;98818.94;;;20.34;57.94
62164;BME280;48149;51.132;7.178;2022-09-02T01:06:36;98816.88;;;20.10;57.73
62164;BME280;48149;51.132;7.178;2022-09-02T01:09:05;98815.72;;;20.47;57.60
62164;BME280;48149;51.132;7.178;2022-09-02T01:11:42;98817.31;;;20.48;57.50
62164;BME280;48149;51.132;7.178;2022-09-02T01:14:09;98817.69;;;19.96;59.44
62164;BME280;48149;51.132;7.178;2022-09-02T01:16:38;98813.44;;;19.90;59.76
62164;BME280;48149;51.132;7.178;2022-09-02T01:19:05;98817.38;;;20.17;58.68
62164;BME280;48149;51.132;7.178;2022-09-02T01:21:34;98820.31;;;20.16;58.49
62164;BME280;48149;51.132;7.178;2022-09-02T01:23:59;98817.91;;;20.19;58.70
62164;BME280;48149;51.132;7.178;2022-09-02T01:26:25;98820.56;;;20.14;58.36
62164;BME280;48149;51.132;7.178;2022-09-02T01:28:50;98820.28;;;20.21;58.47
62164;BME280;48149;51.132;7.178;2022-09-02T01:31:15;98820.94;;;20.67;56.10
62164;BME280;48149;51.132;7.178;2022-09-02T01:33:40;98814.09;;;20.46;56.42
62164;BME280;48149;51.132;7.178;2022-09-02T01:36:06;98821.38;;;20.84;55.89
62164;BME280;48149;51.132;7.178;2022-09-02T01:38:32;98806.69;;;20.43;56.90
62164;BME280;48149;51.132;7.178;2022-09-02T01:40:57;98803.09;;;19.88;59.08
62164;BME280;48149;51.132;7.178;2022-09-02T01:43:23;98807.88;;;20.75;55.60
62164;BME280;48149;51.132;7.178;2022-09-02T01:45:50;98812.94;;;20.72;55.99
62164;BME280;48149;51.132;7.178;2022-09-02T01:48:16;98807.06;;;20.75;55.58
62164;BME280;48149;51.132;7.178;2022-09-02T01:50:43;98806.13;;;20.46;57.17
62164;BME280;48149;51.132;7.178;2022-09-02T01:53:09;98804.53;;;20.55;56.51
62164;BME280;48149;51.132;7.178;2022-09-02T01:55:34;98796.81;;;20.53;57.07
62164;BME280;48149;51.132;7.178;2022-09-02T01:58:00;98798.72;;;20.38;57.58
62164;BME280;48149;51.132;7.178;2022-09-02T02:00:26;98796.53;;;20.50;57.20
62164;BME280;48149;51.132;7.178;2022-09-02T02:02:51;98793.19;;;20.09;57.71
62164;BME280;48149;51.132;7.178;2022-09-02T02:05:17;98791.88;;;20.06;58.81
62164;BME280;48149;51.132;7.178;2022-09-02T02:07:43;98788.16;;;20.02;58.67
62164;BME280;48149;51.132;7.178;2022-09-02T02:10:09;98789.22;;;20.16;57.84
62164;BME280;48149;51.132;7.178;2022-09-02T02:12:35;98784.16;;;20.20;58.03
62164;BME280;48149;51.132;7.178;2022-09-02T02:15:03;98796.97;;;19.98;58.60
62164;BME280;48149;51.132;7.178;2022-09-02T02:17:29;98781.63;;;20.54;56.58
62164;BME280;48149;51.132;7.178;2022-09-02T02:19:54;98792.69;;;20.02;58.59
62164;BME280;48149;51.132;7.178;2022-09-02T02:22:19;98791.81;;;20.37;57.74
62164;BME280;48149;51.132;7.178;2022-09-02T02:24:45;98791.72;;;20.57;57.21
62164;BME280;48149;51.132;7.178;2022-09-02T02:27:10;98786.25;;;20.18;58.63
62164;BME280;48149;51.132;7.178;2022-09-02T02:29:35;98782.25;;;20.36;56.87
62164;BME280;48149;51.132;7.178;2022-09-02T02:32:00;98781.09;;;20.52;56.55
62164;BME280;48149;51.132;7.178;2022-09-02T02:34:26;98788.88;;;20.38;56.85
62164;BME280;48149;51.132;7.178;2022-09-02T02:36:51;98791.53;;;20.43;57.47
62164;BME280;48149;51.132;7.178;2022-09-02T02:39:17;98783.59;;;20.18;58.12
62164;BME280;48149;51.132;7.178;2022-09-02T02:41:42;98785.94;;;20.45;56.51
62164;BME280;48149;51.132;7.178;2022-09-02T02:44:08;98781.69;;;20.44;57.43
62164;BME280;48149;51.132;7.178;2022-09-02T02:46:34;98783.59;;;20.23;57.98
62164;BME280;48149;51.132;7.178;2022-09-02T02:49:00;98780.63;;;20.40;57.27
62164;BME280;48149;51.132;7.178;2022-09-02T02:51:26;98784.09;;;20.40;57.17
62164;BME280;48149;51.132;7.178;2022-09-02T02:53:52;98783.28;;;20.40;56.52
62164;BME280;48149;51.132;7.178;2022-09-02T02:56:18;98784.69;;;20.81;55.98
62164;BME280;48149;51.132;7.178;2022-09-02T02:58:43;98780.16;;;20.17;58.23
62164;BME280;48149;51.132;7.178;2022-09-02T03:01:08;98784.38;;;20.34;57.37
62164;BME280;48149;51.132;7.178;2022-09-02T03:03:34;98782.31;;;20.10;58.14
62164;BME280;48149;51.132;7.178;2022-09-02T03:05:59;98789.03;;;20.62;56.58
62164;BME280;48149;51.132;7.178;2022-09-02T03:08:27;98778.22;;;20.48;56.73
62164;BME280;48149;51.132;7.178;2022-09-02T03:10:54;98779.53;;;20.51;56.36
62164;BME280;48149;51.132;7.178;2022-09-02T03:13:23;98787.25;;;20.47;57.01
62164;BME280;48149;51.132;7.178;2022-09-02T03:15:50;98784.44;;;20.13;57.50
62164;BME280;48149;51.132;7.178;2022-09-02T03:18:15;98783.38;;;20.09;57.76
62164;BME280;48149;51.132;7.178;2022-09-02T03:20:41;98772.16;;;20.17;58.25
62164;BME280;48149;51.132;7.178;2022-09-02T03:23:07;98773.88;;;19.78;60.07
62164;BME280;48149;51.132;7.178;2022-09-02T03:25:33;98778.03;;;20.19;58.79
62164;BME280;48149;51.132;7.178;2022-09-02T03:27:59;98770.94;;;19.95;58.74
62164;BME280;48149;51.132;7.178;2022-09-02T03:30:26;98775.88;;;20.21;58.24
62164;BME280;48149;51.132;7.178;2022-09-02T03:32:52;98775.41;;;20.09;58.40
62164;BME280;48149;51.132;7.178;2022-09-02T03:35:18;98770.06;;;20.19;58.48
62164;BME280;48149;51.132;7.178;2022-09-02T03:37:45;98772.97;;;20.23;58.01
62164;BME280;48149;51.132;7.178;2022-09-02T03:40:12;98768.75;;;20.17;58.92
62164;BME280;48149;51.132;7.178;2022-09-02T03:42:38;98770.06;;;20.14;58.46
62164;BME280;48149;51.132;7.178;2022-09-02T03:45:03;98765.84;;;20.03;58.49
62164;BME280;48149;51.132;7.178;2022-09-02T03:47:30;98766.09;;;20.02;58.44
62164;BME280;48149;51.132;7.178;2022-09-02T03:49:55;98758.88;;;20.28;56.95
62164;BME280;48149;51.132;7.178;2022-09-02T03:52:21;98767.16;;;20.06;58.23
62164;BME280;48149;51.132;7.178;2022-09-02T03:54:47;98760.28;;;20.00;58.89
62164;BME280;48149;51.132;7.178;2022-09-02T03:57:13;98766.31;;;20.31;57.81
62164;BME280;48149;51.132;7.178;2022-09-02T03:59:38;98759.19;;;20.06;58.60
62164;BME280;48149;51.132;7.178;2022-09-02T04:02:03;98764.38;;;20.51;57.11
62164;BME280;48149;51.132;7.178;2022-09-02T04:04:29;98764.47;;;20.16;58.78
62164;BME280;48149;51.132;7.178;2022-09-02T04:06:54;98769.34;;;19.84;59.81
62164;BME280;48149;51.132;7.178;2022-09-02T04:09:21;98757.66;;;19.95;59.33
62164;BME280;48149;51.132;7.178;2022-09-02T04:11:47;98758.16;;;19.97;59.76
62164;BME280;48149;51.132;7.178;2022-09-02T04:14:13;98760.50;;;20.08;59.00
62164;BME280;48149;51.132;7.178;2022-09-02T04:16:38;98759.47;;;19.99;59.17
62164;BME280;48149;51.132;7.178;2022-09-02T04:19:04;98759.41;;;20.30;57.92
62164;BME280;48149;51.132;7.178;2022-09-02T04:21:33;98759.13;;;20.21;58.16
62164;BME280;48149;51.132;7.178;2022-09-02T04:23:59;98757.78;;;20.34;58.03
62164;BME280;48149;51.132;7.178;2022-09-02T04:26:25;98768.38;;;20.44;57.03
62164;BME280;48149;51.132;7.178;2022-09-02T04:28:50;98758.88;;;20.82;55.78
62164;BME280;48149;51.132;7.178;2022-09-02T04:31:17;98755.66;;;20.36;57.92
62164;BME280;48149;51.132;7.178;2022-09-02T04:33:43;98766.84;;;20.28;58.13
62164;BME280;48149;51.132;7.178;2022-09-02T04:36:10;98760.69;;;20.42;57.24
62164;BME280;48149;51.132;7.178;2022-09-02T04:38:36;98753.56;;;20.17;57.99
62164;BME280;48149;51.132;7.178;2022-09-02T04:41:21;98754.06;;;20.35;58.13
62164;BME280;48149;51.132;7.178;2022-09-02T04:43:47;98757.50;;;20.40;57.93
62164;BME280;48149;51.132;7.178;2022-09-02T04:46:13;98761.13;;;19.85;59.45
62164;BME280;48149;51.132;7.178;2022-09-02T04:48:39;98764.66;;;20.45;58.32
62164;BME280;48149;51.132;7.178;2022-09-02T04:51:05;98758.94;;;20.07;58.87
62164;BME280;48149;51.132;7.178;2022-09-02T04:53:31;98761.13;;;19.80;60.34
62164;BME280;48149;51.132;7.178;2022-09-02T04:55:57;98767.00;;;19.72;60.10
62164;BME280;48149;51.132;7.178;2022-09-02T04:58:22;98759.56;;;19.64;61.81
62164;BME280;48149;51.132;7.178;2022-09-02T05:00:47;98761.41;;;19.68;61.68
62164;BME280;48149;51.132;7.178;2022-09-02T05:03:13;98762.22;;;19.49;61.64
62164;BME280;48149;51.132;7.178;2022-09-02T05:05:39;98759.00;;;19.67;61.94
62164;BME280;48149;51.132;7.178;2022-09-02T05:08:04;98766.47;;;19.60;61.94
62164;BME280;48149;51.132;7.178;2022-09-02T05:10:30;98763.84;;;19.50;63.25
62164;BME280;48149;51.132;7.178;2022-09-02T05:12:56;98759.56;;;19.69;62.22
62164;BME280;48149;51.132;7.178;2022-09-02T05:15:22;98764.34;;;19.62;62.40
62164;BME280;48149;51.132;7.178;2022-09-02T05:20:15;98766.69;;;19.84;61.06
62164;BME280;48149;51.132;7.178;2022-09-02T05:22:40;98763.81;;;19.65;61.55
62164;BME280;48149;51.132;7.178;2022-09-02T05:25:08;98764.28;;;19.87;61.82
62164;BME280;48149;51.132;7.178;2022-09-02T05:27:35;98769.88;;;19.91;61.76
62164;BME280;48149;51.132;7.178;2022-09-02T05:30:00;98766.94;;;19.97;60.92
62164;BME280;48149;51.132;7.178;2022-09-02T05:32:26;98763.91;;;20.34;60.57
62164;BME280;48149;51.132;7.178;2022-09-02T05:34:52;98766.66;;;19.89;62.29
62164;BME280;48149;51.132;7.178;2022-09-02T05:37:20;98758.38;;;20.15;60.85
62164;BME280;48149;51.132;7.178;2022-09-02T05:39:45;98754.69;;;20.06;62.29
62164;BME280;48149;51.132;7.178;2022-09-02T05:42:11;98757.06;;;20.08;61.40
62164;BME280;48149;51.132;7.178;2022-09-02T05:44:38;98760.38;;;20.54;60.85
62164;BME280;48149;51.132;7.178;2022-09-02T05:47:04;98757.72;;;20.54;59.68
62164;BME280;48149;51.132;7.178;2022-09-02T05:49:29;98755.69;;;20.26;61.06
62164;BME280;48149;51.132;7.178;2022-09-02T05:51:56;98755.13;;;20.39;61.05
62164;BME280;48149;51.132;7.178;2022-09-02T05:54:25;98760.72;;;20.32;60.62
62164;BME280;48149;51.132;7.178;2022-09-02T05:56:56;98761.81;;;20.26;60.52
62164;BME280;48149;51.132;7.178;2022-09-02T05:59:22;98761.44;;;20.97;59.00
62164;BME280;48149;51.132;7.178;2022-09-02T06:01:48;98758.94;;;20.71;59.73
62164;BME280;48149;51.132;7.178;2022-09-02T06:04:13;98755.56;;;21.00;58.37
62164;BME280;48149;51.132;7.178;2022-09-02T06:06:39;98764.78;;;20.68;60.17
62164;BME280;48149;51.132;7.178;2022-09-02T06:09:06;98753.97;;;20.99;58.72
62164;BME280;48149;51.132;7.178;2022-09-02T06:11:33;98759.81;;;21.01;58.15
62164;BME280;48149;51.132;7.178;2022-09-02T06:13:58;98760.94;;;21.34;57.01
62164;BME280;48149;51.132;7.178;2022-09-02T06:16:23;98757.91;;;21.40;57.18
62164;BME280;48149;51.132;7.178;2022-09-02T06:18:50;98760.59;;;21.69;56.15
62164;BME280;48149;51.132;7.178;2022-09-02T06:21:16;98764.88;;;21.94;54.45
62164;BME280;48149;51.132;7.178;2022-09-02T06:23:42;98760.66;;;22.16;55.48
62164;BME280;48149;51.132;7.178;2022-09-02T06:26:09;98756.72;;;22.32;53.94
62164;BME280;48149;51.132;7.178;2022-09-02T06:28:35;98764.03;;;22.46;53.82
62164;BME280;48149;51.132;7.178;2022-09-02T06:31:07;98759.47;;;22.04;54.93
62164;BME280;48149;51.132;7.178;2022-09-02T06:33:33;98750.66;;;22.27;53.86
62164;BME280;48149;51.132;7.178;2022-09-02T06:35:58;98760.31;;;22.23;54.77
62164;BME280;48149;51.132;7.178;2022-09-02T06:38:30;98760.47;;;22.31;54.63
62164;BME280;48149;51.132;7.178;2022-09-02T06:40:55;98756.91;;;21.94;55.71
62164;BME280;48149;51.132;7.178;2022-09-02T06:43:21;98764.97;;;21.89;55.98
62164;BME280;48149;51.132;7.178;2022-09-02T06:45:46;98762.75;;;22.19;55.51
62164;BME280;48149;51.132;7.178;2022-09-02T06:48:12;98756.94;;;21.31;57.60
62164;BME280;48149;51.132;7.178;2022-09-02T06:50:41;98760.78;;;21.49;57.09
62164;BME280;48149;51.132;7.178;2022-09-02T06:53:07;98759.09;;;21.58;55.89
62164;BME280;48149;51.132;7.178;2022-09-02T06:55:34;98763.59;;;21.91;55.18
62164;BME280;48149;51.132;7.178;2022-09-02T06:57:59;98763.41;;;21.83;55.42
62164;BME280;48149;51.132;7.178;2022-09-02T07:00:25;98760.09;;;21.67;56.44
62164;BME280;48149;51.132;7.178;2022-09-02T07:02:50;98758.38;;;21.18;58.15
62164;BME280;48149;51.132;7.178;2022-09-02T07:05:35;98757.56;;;21.52;55.91
62164;BME280;48149;51.132;7.178;2022-09-02T07:08:01;98766.47;;;21.37;58.63
62164;BME280;48149;51.132;7.178;2022-09-02T07:10:26;98764.75;;;21.80;56.41
62164;BME280;48149;51.132;7.178;2022-09-02T07:12:52;98764.69;;;22.14;55.23
62164;BME280;48149;51.132;7.178;2022-09-02T07:15:19;98766.16;;;22.86;51.93
62164;BME280;48149;51.132;7.178;2022-09-02T07:17:45;98760.47;;;22.93;52.79
62164;BME280;48149;51.132;7.178;2022-09-02T07:20:10;98756.03;;;23.20;51.49
62164;BME280;48149;51.132;7.178;2022-09-02T07:22:36;98757.50;;;23.13;51.40
62164;BME280;48149;51.132;7.178;2022-09-02T07:25:02;98763.06;;;23.16;52.76
62164;BME280;48149;51.132;7.178;2022-09-02T07:27:28;98750.66;;;23.71;50.53
62164;BME280;48149;51.132;7.178;2022-09-02T07:29:53;98758.78;;;23.15;51.88
62164;BME280;48149;51.132;7.178;2022-09-02T07:32:20;98757.72;;;22.79;53.34
62164;BME280;48149;51.132;7.178;2022-09-02T07:34:48;98750.44;;;23.68;51.45
62164;BME280;48149;51.132;7.178;2022-09-02T07:37:14;98748.63;;;23.50;51.38
62164;BME280;48149;51.132;7.178;2022-09-02T07:39:39;98746.06;;;23.26;52.59
62164;BME280;48149;51.132;7.178;2022-09-02T07:42:06;98746.03;;;24.04;51.01
62164;BME280;48149;51.132;7.178;2022-09-02T07:44:32;98744.91;;;24.05;50.17
62164;BME280;48149;51.132;7.178;2022-09-02T07:46:57;98744.22;;;24.00;50.38
62164;BME280;48149;51.132;7.178;2022-09-02T07:49:22;98743.25;;;23.82;50.45
62164;BME280;48149;51.132;7.178;2022-09-02T07:51:48;98735.22;;;24.36;49.32
62164;BME280;48149;51.132;7.178;2022-09-02T07:54:14;98741.28;;;24.01;49.73
62164;BME280;48149;51.132;7.178;2022-09-02T07:56:40;98745.38;;;24.62;49.48
62164;BME280;48149;51.132;7.178;2022-09-02T07:59:06;98744.34;;;24.85;48.87
62164;BME280;48149;51.132;7.178;2022-09-02T08:01:31;98740.84;;;24.98;47.56
62164;BME280;48149;51.132;7.178;2022-09-02T08:03:59;98744.13;;;25.39;45.86
62164;BME280;48149;51.132;7.178;2022-09-02T08:06:25;98747.91;;;25.16;47.09
62164;BME280;48149;51.132;7.178;2022-09-02T08:08:52;98747.53;;;25.31;45.68
62164;BME280;48149;51.132;7.178;2022-09-02T08:11:18;98743.94;;;24.91;46.86
62164;BME280;48149;51.132;7.178;2022-09-02T08:13:44;98752.84;;;25.76;45.02
62164;BME280;48149;51.132;7.178;2022-09-02T08:16:10;98736.25;;;25.65;45.08
62164;BME280;48149;51.132;7.178;2022-09-02T08:18:35;98742.16;;;25.31;45.80
62164;BME280;48149;51.132;7.178;2022-09-02T08:21:00;98750.03;;;25.50;44.37
62164;BME280;48149;51.132;7.178;2022-09-02T08:23:26;98748.31;;;25.54;46.86
62164;BME280;48149;51.132;7.178;2022-09-02T08:25:51;98743.28;;;25.30;45.44
62164;BME280;48149;51.132;7.178;2022-09-02T08:28:16;98748.72;;;26.09;45.48
62164;BME280;48149;51.132;7.178;2022-09-02T08:30:42;98752.44;;;25.38;44.07
62164;BME280;48149;51.132;7.178;2022-09-02T08:33:07;98748.72;;;26.09;43.20
62164;BME280;48149;51.132;7.178;2022-09-02T08:35:33;98749.06;;;26.90;40.68
62164;BME280;48149;51.132;7.178;2022-09-02T08:37:59;98745.09;;;26.14;43.47
62164;BME280;48149;51.132;7.178;2022-09-02T08:40:26;98749.06;;;26.98;40.74
62164;BME280;48149;51.132;7.178;2022-09-02T08:42:55;98743.78;;;26.42;42.39
62164;BME280;48149;51.132;7.178;2022-09-02T08:47:48;98738.94;;;26.13;43.48
62164;BME280;48149;51.132;7.178;2022-09-02T08:50:15;98734.41;;;26.22;43.20
62164;BME280;48149;51.132;7.178;2022-09-02T08:52:43;98743.44;;;26.35;42.64
62164;BME280;48149;51.132;7.178;2022-09-02T08:55:13;98737.47;;;26.64;41.65
62164;BME280;48149;51.132;7.178;2022-09-02T08:57:40;98725.44;;;27.55;39.18
62164;BME280;48149;51.132;7.178;2022-09-02T09:00:07;98722.69;;;27.73;39.07
62164;BME280;48149;51.132;7.178;2022-09-02T09:07:56;98723.91;;;27.20;38.44
62164;BME280;48149;51.132;7.178;2022-09-02T09:17:59;98730.25;;;26.98;39.98
62164;BME280;48149;51.132;7.178;2022-09-02T09:20:30;98729.63;;;26.76;40.87
62164;BME280;48149;51.132;7.178;2022-09-02T09:22:57;98720.53;;;27.40;38.90
62164;BME280;48149;51.132;7.178;2022-09-02T09:25:23;98712.84;;;29.51;34.37
62164;BME280;48149;51.132;7.178;2022-09-02T09:27:56;98707.22;;;30.65;32.67
62164;BME280;48149;51.132;7.178;2022-09-02T09:30:21;98698.41;;;31.83;31.96
62164;BME280;48149;51.132;7.178;2022-09-02T09:32:48;98706.00;;;32.08;29.75
62164;BME280;48149;51.132;7.178;2022-09-02T09:35:16;98700.53;;;32.78;28.95
62164;BME280;48149;51.132;7.178;2022-09-02T09:37:43;98711.41;;;31.77;31.30
62164;BME280;48149;51.132;7.178;2022-09-02T09:45:19;98696.13;;;30.30;31.42
62164;BME280;48149;51.132;7.178;2022-09-02T09:48:02;98694.47;;;33.46;28.03
62164;BME280;48149;51.132;7.178;2022-09-02T09:50:31;98701.28;;;31.15;29.15
62164;BME280;48149;51.132;7.178;2022-09-02T09:56:00;98686.00;;;31.82;29.61
62164;BME280;48149;51.132;7.178;2022-09-02T10:01:10;98687.22;;;32.35;27.70
62164;BME280;48149;51.132;7.178;2022-09-02T10:03:35;98690.94;;;35.43;25.17
62164;BME280;48149;51.132;7.178;2022-09-02T10:06:15;98697.84;;;33.39;25.77
62164;BME280;48149;51.132;7.178;2022-09-02T10:11:21;98690.63;;;33.96;24.64
62164;BME280;48149;51.132;7.178;2022-09-02T10:13:47;98685.88;;;34.12;25.89
62164;BME280;48149;51.132;7.178;2022-09-02T10:19:00;98682.44;;;33.92;23.49
62164;BME280;48149;51.132;7.178;2022-09-02T10:26:48;98680.00;;;32.23;26.07
62164;BME280;48149;51.132;7.178;2022-09-02T10:42:17;98668.31;;;30.82;27.41
62164;BME280;48149;51.132;7.178;2022-09-02T10:54:58;98651.00;;;30.43;27.09
62164;BME280;48149;51.132;7.178;2022-09-02T10:57:29;98656.66;;;32.72;26.01
62164;BME280;48149;51.132;7.178;2022-09-02T11:05:42;98659.31;;;31.21;25.96
62164;BME280;48149;51.132;7.178;2022-09-02T11:08:13;98648.44;;;32.50;24.05
62164;BME280;48149;51.132;7.178;2022-09-02T11:11:28;98634.94;;;33.56;23.65
62164;BME280;48149;51.132;7.178;2022-09-02T11:13:34;98650.78;;;35.77;21.96
62164;BME280;48149;51.132;7.178;2022-09-02T11:16:03;98640.44;;;32.03;25.09
62164;BME280;48149;51.132;7.178;2022-09-02T11:25:58;98631.25;;;32.42;24.66
62164;BME280;48149;51.132;7.178;2022-09-02T11:34:00;98639.53;;;32.30;25.67
62164;BME280;48149;51.132;7.178;2022-09-02T11:36:26;98631.06;;;35.06;22.89
62164;BME280;48149;51.132;7.178;2022-09-02T11:38:53;98613.44;;;38.37;19.60
62164;BME280;48149;51.132;7.178;2022-09-02T11:43:54;98618.34;;;33.39;23.13
62164;BME280;48149;51.132;7.178;2022-09-02T11:54:04;98615.09;;;30.42;27.07
62164;BME280;48149;51.132;7.178;2022-09-02T11:56:42;98610.16;;;30.88;26.76
62164;BME280;48149;51.132;7.178;2022-09-02T11:59:19;98610.38;;;30.39;27.65
62164;BME280;48149;51.132;7.178;2022-09-02T12:01:51;98599.31;;;31.97;25.81
62164;BME280;48149;51.132;7.178;2022-09-02T12:04:23;98602.19;;;32.58;25.81
62164;BME280;48149;51.132;7.178;2022-09-02T12:09:47;98599.22;;;34.66;23.35
62164;BME280;48149;51.132;7.178;2022-09-02T12:15:10;98588.03;;;36.38;21.28
62164;BME280;48149;51.132;7.178;2022-09-02T12:17:38;98596.94;;;33.83;22.93
62164;BME280;48149;51.132;7.178;2022-09-02T12:20:09;98596.34;;;36.74;20.46
62164;BME280;48149;51.132;7.178;2022-09-02T12:22:36;98591.06;;;38.56;18.96
62164;BME280;48149;51.132;7.178;2022-09-02T12:25:32;98585.75;;;39.86;18.20
62164;BME280;48149;51.132;7.178;2022-09-02T12:27:50;98587.81;;;38.82;19.08
62164;BME280;48149;51.132;7.178;2022-09-02T12:33:27;98570.16;;;36.52;19.80
62164;BME280;48149;51.132;7.178;2022-09-02T12:35:53;98576.34;;;36.38;19.66
62164;BME280;48149;51.132;7.178;2022-09-02T12:38:21;98571.41;;;36.82;19.47
62164;BME280;48149;51.132;7.178;2022-09-02T12:41:10;98585.53;;;36.02;20.70
62164;BME280;48149;51.132;7.178;2022-09-02T12:43:51;98580.59;;;36.21;20.66
62164;BME280;48149;51.132;7.178;2022-09-02T12:49:00;98570.72;;;36.03;20.95
62164;BME280;48149;51.132;7.178;2022-09-02T12:54:13;98574.06;;;34.43;21.62
62164;BME280;48149;51.132;7.178;2022-09-02T12:56:46;98572.84;;;35.14;21.42
62164;BME280;48149;51.132;7.178;2022-09-02T12:59:11;98572.63;;;37.17;20.45
62164;BME280;48149;51.132;7.178;2022-09-02T13:01:57;98561.13;;;34.66;22.47
62164;BME280;48149;51.132;7.178;2022-09-02T13:07:08;98554.97;;;35.64;20.46
62164;BME280;48149;51.132;7.178;2022-09-02T13:09:45;98553.69;;;33.70;22.77
62164;BME280;48149;51.132;7.178;2022-09-02T13:14:51;98547.34;;;35.95;20.63
62164;BME280;48149;51.132;7.178;2022-09-02T13:18:06;98547.19;;;35.12;21.15
62164;BME280;48149;51.132;7.178;2022-09-02T13:20:33;98543.41;;;33.08;23.04
62164;BME280;48149;51.132;7.178;2022-09-02T13:23:18;98542.03;;;33.17;22.70
62164;BME280;48149;51.132;7.178;2022-09-02T13:25:59;98543.63;;;34.64;22.24
62164;BME280;48149;51.132;7.178;2022-09-02T13:31:36;98528.78;;;38.05;19.31
62164;BME280;48149;51.132;7.178;2022-09-02T13:34:10;98528.94;;;39.90;17.57
62164;BME280;48149;51.132;7.178;2022-09-02T13:36:41;98525.25;;;39.66;17.31
62164;BME280;48149;51.132;7.178;2022-09-02T13:39:16;98530.13;;;40.76;17.51
62164;BME280;48149;51.132;7.178;2022-09-02T13:41:42;98517.75;;;40.08;18.10
62164;BME280;48149;51.132;7.178;2022-09-02T13:44:11;98523.69;;;39.69;16.88
62164;BME280;48149;51.132;7.178;2022-09-02T13:46:45;98516.47;;;36.73;19.46
62164;BME280;48149;51.132;7.178;2022-09-02T13:49:21;98521.94;;;36.80;19.69
62164;BME280;48149;51.132;7.178;2022-09-02T13:51:49;98518.13;;;38.90;17.99
62164;BME280;48149;51.132;7.178;2022-09-02T13:54:27;98513.03;;;38.30;18.88
62164;BME280;48149;51.132;7.178;2022-09-02T13:56:54;98503.47;;;37.94;18.67
62164;BME280;48149;51.132;7.178;2022-09-02T13:59:32;98508.03;;;38.15;18.39
62164;BME280;48149;51.132;7.178;2022-09-02T14:01:57;98503.19;;;37.53;18.03
62164;BME280;48149;51.132;7.178;2022-09-02T14:04:23;98498.00;;;37.90;19.51
62164;BME280;48149;51.132;7.178;2022-09-02T14:06:49;98503.97;;;37.32;19.21
62164;BME280;48149;51.132;7.178;2022-09-02T14:09:24;98497.75;;;38.40;18.95
62164;BME280;48149;51.132;7.178;2022-09-02T14:11:51;98489.56;;;36.86;19.37
62164;BME280;48149;51.132;7.178;2022-09-02T14:14:19;98492.31;;;36.93;19.78
62164;BME280;48149;51.132;7.178;2022-09-02T14:16:46;98486.03;;;37.35;19.88
62164;BME280;48149;51.132;7.178;2022-09-02T14:19:32;98484.19;;;38.19;19.68
62164;BME280;48149;51.132;7.178;2022-09-02T14:22:02;98484.41;;;37.69;18.90
62164;BME280;48149;51.132;7.178;2022-09-02T14:24:29;98483.06;;;34.70;21.47
62164;BME280;48149;51.132;7.178;2022-09-02T14:27:01;98484.91;;;32.61;23.21
62164;BME280;48149;51.132;7.178;2022-09-02T14:29:27;98475.50;;;32.13;24.19
62164;BME280;48149;51.132;7.178;2022-09-02T14:32:08;98482.94;;;32.01;24.24
62164;BME280;48149;51.132;7.178;2022-09-02T14:34:37;98481.78;;;31.29;25.41
62164;BME280;48149;51.132;7.178;2022-09-02T14:37:22;98478.16;;;31.94;24.55
62164;BME280;48149;51.132;7.178;2022-09-02T14:40:07;98476.34;;;34.57;22.16
62164;BME280;48149;51.132;7.178;2022-09-02T14:42:56;98469.16;;;37.75;19.43
62164;BME280;48149;51.132;7.178;2022-09-02T14:45:27;98457.81;;;35.97;20.69
62164;BME280;48149;51.132;7.178;2022-09-02T14:47:53;98469.63;;;36.29;19.91
62164;BME280;48149;51.132;7.178;2022-09-02T14:50:21;98463.09;;;34.15;22.16
62164;BME280;48149;51.132;7.178;2022-09-02T14:52:48;98464.09;;;34.77;21.59
62164;BME280;48149;51.132;7.178;2022-09-02T14:55:38;98457.97;;;36.46;20.04
62164;BME280;48149;51.132;7.178;2022-09-02T14:58:06;98451.16;;;34.60;20.87
62164;BME280;48149;51.132;7.178;2022-09-02T15:00:31;98459.56;;;32.99;22.83